Time;durP1;ratioP1;P1;durP2;ratioP2;P2;SDS_P1;SDS_P2;PMS_P1;PMS_P2;Temp;Humidity;BMP_temperature;BMP_pressure;BME280_temperature;BME280_humidity;BME280_pressure;Samples;Min_cycle;Max_cycle;Signal;HPM_P1;HPM_P2
2022/08/29 04:17:11;;;;;;;5.68;3.85;;;;;;;15.43;84.21;100460.84;5207572;23;20068;-67
2022/08/29 04:19:37;;;;;;;4.78;2.58;;;;;;;15.46;83.88;100462.31;5031618;28;20038;-67
2022/08/29 04:22:03;;;;;;;4.85;2.83;;;;;;;15.46;84.26;100463.16;5032538;28;20379;-67
2022/08/29 04:24:34;;;;;;;6.68;3.25;;;;;;;15.45;84.48;100466.00;5032697;28;20449;-67
2022/08/29 04:26:59;;;;;;;5.53;2.95;;;;;;;15.40;85.53;100465.81;5032379;28;20056;-67
2022/08/29 04:29:25;;;;;;;3.58;2.42;;;;;;;15.40;85.42;100466.63;5032460;28;20037;-67
2022/08/29 04:31:51;;;;;;;5.97;3.38;;;;;;;15.40;85.30;100469.31;5032379;28;20069;-67
2022/08/29 04:34:16;;;;;;;5.85;2.85;;;;;;;15.32;85.57;100469.47;5032204;28;20033;-68
2022/08/29 04:36:46;;;;;;;5.88;2.92;;;;;;;15.33;85.41;100467.63;5032418;28;20045;-67
2022/08/29 04:39:12;;;;;;;7.03;2.88;;;;;;;15.36;85.48;100476.09;5031786;28;20045;-68
2022/08/29 04:41:38;;;;;;;7.72;3.08;;;;;;;15.37;85.17;100471.56;5032093;28;20061;-68
2022/08/29 04:44:05;;;;;;;5.88;3.05;;;;;;;15.31;85.39;100472.34;5032058;28;20110;-67
2022/08/29 04:46:31;;;;;;;7.10;3.38;;;;;;;15.29;85.76;100467.19;5032103;28;20041;-67
2022/08/29 04:48:57;;;;;;;4.97;2.75;;;;;;;15.19;86.15;100470.25;5032068;28;20083;-67
2022/08/29 04:51:23;;;;;;;7.40;2.78;;;;;;;15.21;86.54;100472.72;5031876;28;20041;-67
2022/08/29 04:53:50;;;;;;;5.85;3.25;;;;;;;15.07;87.60;100474.50;5031913;28;20052;-66
2022/08/29 04:56:15;;;;;;;8.40;3.17;;;;;;;15.06;87.93;100477.34;5031738;28;20056;-68
2022/08/29 04:58:42;;;;;;;7.78;3.10;;;;;;;15.01;88.13;100482.50;5031692;28;20478;-68
2022/08/29 05:01:11;;;;;;;5.45;3.53;;;;;;;15.07;87.76;100481.72;5031399;28;20562;-68
2022/08/29 05:03:37;;;;;;;8.23;3.22;;;;;;;15.08;88.35;100481.50;5031817;28;20033;-67
2022/08/29 05:06:07;;;;;;;6.88;4.25;;;;;;;15.13;88.33;100486.31;5031777;28;20437;-67
2022/08/29 05:08:38;;;;;;;9.23;3.72;;;;;;;15.13;88.48;100481.75;5031726;28;20068;-67
2022/08/29 05:11:05;;;;;;;5.20;2.90;;;;;;;15.08;89.05;100486.88;5031387;28;20076;-68
2022/08/29 05:13:32;;;;;;;10.32;4.20;;;;;;;15.03;89.29;100491.19;5031626;28;20033;-66
2022/08/29 05:15:57;;;;;;;6.30;3.83;;;;;;;15.06;89.07;100505.03;5031291;28;20417;-67
2022/08/29 05:18:22;;;;;;;9.73;4.22;;;;;;;15.03;89.07;100496.53;5031546;28;20127;-67
2022/08/29 05:20:48;;;;;;;5.20;3.50;;;;;;;15.15;88.88;100506.53;5013291;28;20052;-68
2022/08/29 05:23:16;;;;;;;7.43;4.22;;;;;;;15.13;88.72;100494.34;5031386;28;20044;-68
2022/08/29 05:25:43;;;;;;;7.65;3.65;;;;;;;15.16;88.55;100508.19;5031345;28;20079;-68
2022/08/29 05:28:10;;;;;;;6.10;3.77;;;;;;;15.24;88.40;100507.19;5013679;28;20063;-67
2022/08/29 05:30:39;;;;;;;9.20;4.30;;;;;;;15.31;87.99;100507.22;5031214;28;20292;-67
2022/08/29 05:33:06;;;;;;;10.70;4.03;;;;;;;15.37;87.62;100506.44;5031422;28;20113;-67
2022/08/29 05:35:33;;;;;;;5.55;3.42;;;;;;;15.34;87.59;100505.00;5031675;28;20108;-67
2022/08/29 05:37:59;;;;;;;9.52;4.05;;;;;;;15.39;87.31;100502.56;5031407;28;20041;-67
2022/08/29 05:40:25;;;;;;;7.80;4.00;;;;;;;15.41;87.30;100502.34;5030903;28;20495;-68
2022/08/29 05:42:50;;;;;;;10.82;3.78;;;;;;;15.41;87.25;100513.91;5031282;28;20072;-68
2022/08/29 05:45:16;;;;;;;6.95;3.65;;;;;;;15.44;86.94;100513.50;5031196;28;20120;-67
2022/08/29 05:47:41;;;;;;;9.48;4.15;;;;;;;15.50;86.43;100517.25;5025241;28;20049;-68
2022/08/29 05:50:07;;;;;;;5.68;3.55;;;;;;;15.57;85.94;100510.06;4991551;28;20118;-66
2022/08/29 05:52:33;;;;;;;7.20;3.47;;;;;;;15.61;85.88;100514.00;4974446;28;20408;-67
2022/08/29 05:55:00;;;;;;;6.68;4.13;;;;;;;15.62;85.27;100510.31;4991922;28;20139;-68
2022/08/29 05:57:26;;;;;;;8.25;4.30;;;;;;;15.69;85.24;100513.03;4991793;28;20064;-68
2022/08/29 05:59:53;;;;;;;8.18;3.60;;;;;;;15.74;85.42;100515.97;4973846;28;20042;-69
2022/08/29 06:02:20;;;;;;;5.97;3.40;;;;;;;15.79;85.35;100513.50;4994560;28;20050;-67
2022/08/29 06:04:46;;;;;;;;;;;;;;;15.85;84.98;100511.88;4996149;28;20502;-68
2022/08/29 06:07:12;;;;;;;6.15;3.45;;;;;;;15.82;84.97;100520.31;4995679;28;19918;-67
2022/08/29 06:09:39;;;;;;;6.57;3.42;;;;;;;15.90;84.55;100515.59;4995315;28;20038;-68
2022/08/29 06:12:05;;;;;;;;;;;;;;;15.97;84.72;100516.47;4995857;28;20096;-67
2022/08/29 06:14:31;;;;;;;5.60;2.75;;;;;;;15.97;83.99;100510.22;4995618;28;20033;-68
2022/08/29 06:16:57;;;;;;;9.65;3.83;;;;;;;15.97;84.14;100518.28;4995381;28;20046;-67
2022/08/29 06:19:23;;;;;;;8.45;3.50;;;;;;;16.07;84.43;100517.94;4995093;28;20035;-68
2022/08/29 06:21:49;;;;;;;6.47;3.13;;;;;;;16.13;84.50;100527.88;4995437;28;20041;-67
2022/08/29 06:24:15;;;;;;;7.00;2.97;;;;;;;16.18;83.39;100525.41;4995331;28;20121;-52
2022/08/29 06:26:42;;;;;;;4.75;3.00;;;;;;;16.24;82.98;100521.91;4995272;28;20042;-52
2022/08/29 06:29:09;;;;;;;5.85;3.10;;;;;;;16.31;82.89;100519.25;4977583;28;20042;-66
2022/08/29 06:31:35;;;;;;;6.68;3.03;;;;;;;16.36;81.53;100519.44;4995511;28;20414;-66
2022/08/29 06:34:04;;;;;;;4.90;2.85;;;;;;;16.41;81.83;100525.03;4995577;28;20423;-67
2022/08/29 06:36:30;;;;;;;5.60;2.58;;;;;;;16.51;80.97;100528.16;4995163;28;20038;-66
2022/08/29 06:38:57;;;;;;;6.82;3.10;;;;;;;16.61;80.56;100530.44;4995041;28;20046;-67
2022/08/29 06:41:24;;;;;;;5.57;2.75;;;;;;;16.66;80.50;100531.47;4994893;28;20562;-67
2022/08/29 06:43:50;;;;;;;4.78;2.97;;;;;;;16.72;80.68;100532.53;4997540;28;20040;-65
2022/08/29 06:46:29;;;;;;;7.63;2.90;;;;;;;16.81;80.46;100533.97;5009002;28;20088;-65
2022/08/29 06:48:56;;;;;;;4.68;2.50;;;;;;;16.88;78.83;100531.28;5014068;28;20042;-67
2022/08/29 06:51:23;;;;;;;5.63;2.40;;;;;;;16.97;77.76;100536.25;5013818;28;20480;-66
2022/08/29 06:53:48;;;;;;;4.82;2.00;;;;;;;17.05;77.12;100537.91;5014235;28;20145;-66
2022/08/29 06:56:14;;;;;;;3.30;2.10;;;;;;;17.12;77.00;100548.66;5014236;28;20470;-66
2022/08/29 06:58:40;;;;;;;6.32;1.90;;;;;;;17.18;75.82;100550.53;5014361;28;20037;-67
2022/08/29 07:01:15;;;;;;;4.97;2.60;;;;;;;17.29;74.76;100552.59;5013557;28;20096;-67
2022/08/29 07:03:40;;;;;;;2.75;1.83;;;;;;;17.35;75.26;100563.34;5014026;28;20116;-67
2022/08/29 07:06:07;;;;;;;3.70;1.80;;;;;;;17.46;75.19;100556.47;5014131;28;20622;-67
2022/08/29 07:08:33;;;;;;;2.42;1.63;;;;;;;17.51;75.25;100555.84;5014081;28;20045;-67
2022/08/29 07:11:00;;;;;;;3.15;1.95;;;;;;;17.59;75.13;100551.06;5013482;28;20545;-66
2022/08/29 07:13:25;;;;;;;3.10;1.92;;;;;;;17.70;74.65;100552.28;5013278;28;20033;-67
2022/08/29 07:15:51;;;;;;;6.00;2.33;;;;;;;17.79;73.69;100553.72;5013957;28;20092;-67
2022/08/29 07:18:16;;;;;;;4.50;1.83;;;;;;;17.85;72.68;100560.94;5014109;28;20302;-67
2022/08/29 07:20:42;;;;;;;2.85;1.70;;;;;;;17.93;72.65;100554.50;5013164;28;20483;-67
2022/08/29 07:23:07;;;;;;;2.97;2.10;;;;;;;17.95;71.83;100549.72;4996002;28;20073;-67
2022/08/29 07:25:33;;;;;;;5.10;2.22;;;;;;;18.03;71.97;100548.66;5013833;28;20042;-67
2022/08/29 07:27:59;;;;;;;2.33;1.80;;;;;;;18.12;71.78;100553.56;5013929;28;20069;-67
2022/08/29 07:30:25;;;;;;;3.47;2.10;;;;;;;18.17;71.01;100552.94;5012877;28;20045;-67
2022/08/29 07:32:50;;;;;;;4.13;1.83;;;;;;;18.28;70.81;100559.50;5013497;28;20045;-67
2022/08/29 07:35:17;;;;;;;4.00;1.80;;;;;;;18.36;70.67;100557.38;5013525;28;20041;-67
2022/08/29 07:37:43;;;;;;;4.20;1.97;;;;;;;18.43;68.99;100554.66;5013575;28;20088;-67
2022/08/29 07:40:11;;;;;;;2.80;1.50;;;;;;;18.50;69.06;100552.72;5012564;28;20030;-66
2022/08/29 07:42:38;;;;;;;4.28;1.75;;;;;;;18.60;67.95;100552.25;5013203;28;20038;-66
2022/08/29 07:45:06;;;;;;;4.20;1.83;;;;;;;18.71;68.69;100551.56;5013394;28;20052;-67
2022/08/29 07:47:32;;;;;;;4.65;1.75;;;;;;;18.78;68.29;100546.97;5013303;28;20044;-65
2022/08/29 07:50:00;;;;;;;6.03;1.90;;;;;;;18.90;68.54;100538.97;5012323;28;20034;-67
2022/08/29 07:52:26;;;;;;;4.50;2.13;;;;;;;18.99;66.52;100545.75;5013002;28;20034;-66
2022/08/29 07:54:51;;;;;;;4.70;1.80;;;;;;;19.04;66.60;100535.13;5013090;28;20037;-67
2022/08/29 07:57:17;;;;;;;2.88;1.67;;;;;;;19.23;66.35;100538.66;5013181;28;20038;-67
2022/08/29 07:59:43;;;;;;;4.03;1.50;;;;;;;19.34;66.50;100540.63;5012212;28;20402;-66
2022/08/29 08:02:08;;;;;;;1.95;1.40;;;;;;;19.48;66.44;100542.13;4995355;28;20042;-68
2022/08/29 08:04:33;;;;;;;2.55;1.42;;;;;;;19.58;65.41;100541.66;5012980;28;20022;-68
2022/08/29 08:06:59;;;;;;;4.82;1.67;;;;;;;19.61;65.29;100541.19;4979248;28;20113;-67
2022/08/29 08:09:25;;;;;;;4.95;1.58;;;;;;;19.71;65.49;100537.97;5011855;28;20049;-67
2022/08/29 08:11:50;;;;;;;3.33;1.40;;;;;;;19.81;65.80;100540.97;5013038;28;20037;-67
2022/08/29 08:14:16;;;;;;;3.15;1.77;;;;;;;19.88;65.82;100541.69;5012792;28;20109;-66
2022/08/29 08:16:42;;;;;;;5.00;1.75;;;;;;;19.85;65.17;100542.16;5012613;28;20435;-67
2022/08/29 08:19:07;;;;;;;4.07;1.83;;;;;;;19.93;64.42;100549.13;4993942;28;20117;-68
2022/08/29 08:21:33;;;;;;;2.92;1.63;;;;;;;19.98;64.17;100552.81;5012746;28;20133;-67
2022/08/29 08:23:59;;;;;;;4.30;2.05;;;;;;;19.95;64.42;100544.31;4994061;28;20442;-67
2022/08/29 08:26:24;;;;;;;3.80;1.70;;;;;;;20.01;64.00;100546.94;4995106;28;20539;-66
2022/08/29 08:28:50;;;;;;;4.07;1.67;;;;;;;20.04;64.18;100553.78;4994577;28;20048;-67
2022/08/29 08:31:16;;;;;;;2.85;1.63;;;;;;;20.17;64.09;100552.78;5012197;28;20770;-67
2022/08/29 08:33:43;;;;;;;4.35;1.70;;;;;;;20.30;65.20;100558.84;5012664;28;20038;-67
2022/08/29 08:36:22;;;;;;;3.20;1.60;;;;;;;20.33;63.80;100561.06;5012564;28;20038;-66
2022/08/29 08:38:48;;;;;;;6.45;2.00;;;;;;;20.54;63.81;100557.06;5012458;28;20141;-69
2022/08/29 08:41:25;;;;;;;2.58;1.73;;;;;;;20.65;62.75;100560.84;5012256;28;20045;-66
2022/08/29 08:44:13;;;;;;;4.03;1.60;;;;;;;20.74;62.48;100562.19;5012486;28;20030;-67
2022/08/29 08:46:42;;;;;;;3.78;1.52;;;;;;;20.96;62.17;100558.91;4962432;28;20414;-68
2022/08/29 08:49:15;;;;;;;1.80;1.50;;;;;;;21.07;62.25;100560.81;5012308;28;20034;-67
2022/08/29 08:51:49;;;;;;;4.22;1.63;;;;;;;21.24;60.94;100556.31;5012316;28;20570;-67
2022/08/29 08:54:23;;;;;;;3.83;1.40;;;;;;;21.37;61.38;100556.09;5012361;28;20032;-66
2022/08/29 08:57:04;;;;;;;2.42;1.77;;;;;;;21.51;60.29;100547.72;5012177;28;20042;-67
2022/08/29 08:59:42;;;;;;;4.53;1.85;;;;;;;21.55;60.50;100557.03;5011796;28;20441;-67
2022/08/29 09:02:35;;;;;;;3.95;1.88;;;;;;;21.57;60.31;100561.16;5012181;28;20041;-67
2022/08/29 09:05:18;;;;;;;2.30;1.60;;;;;;;21.62;59.71;100555.03;5012107;28;20117;-67
2022/08/29 09:08:04;;;;;;;4.22;1.58;;;;;;;21.81;59.08;100567.38;5012030;28;20017;-67
2022/08/29 09:10:58;;;;;;;3.35;1.80;;;;;;;21.94;58.98;100555.41;5011664;28;20037;-66
2022/08/29 09:13:44;;;;;;;4.47;1.75;;;;;;;21.97;57.67;100551.41;5011903;28;20518;-66
2022/08/29 09:16:25;;;;;;;3.15;1.70;;;;;;;22.09;57.72;100557.63;5011876;28;20037;-66
2022/08/29 09:18:50;;;;;;;2.97;1.63;;;;;;;22.25;56.95;100556.06;5011673;28;20042;-66
2022/08/29 09:21:20;;;;;;;3.40;2.53;;;;;;;22.39;57.50;100554.69;5011573;28;20373;-66
2022/08/29 09:23:53;;;;;;;4.88;2.08;;;;;;;22.52;56.88;100540.00;5011777;28;20049;-66
2022/08/29 09:26:21;;;;;;;3.58;1.70;;;;;;;22.76;57.75;100552.38;4994161;28;20468;-67
2022/08/29 09:28:48;;;;;;;3.92;1.70;;;;;;;22.91;56.60;100549.09;5011668;28;20041;-66
2022/08/29 09:31:32;;;;;;;3.53;1.40;;;;;;;23.12;55.15;100550.22;5011617;28;20037;-66
2022/08/29 09:34:01;;;;;;;3.30;1.90;;;;;;;23.18;54.87;100552.78;5011741;28;20041;-67
2022/08/29 09:36:39;;;;;;;6.22;2.22;;;;;;;23.29;54.69;100551.03;5011465;28;20399;-67
2022/08/29 09:39:13;;;;;;;3.20;1.85;;;;;;;23.37;54.48;100547.88;5011344;28;20041;-66
2022/08/29 09:41:39;;;;;;;3.35;1.88;;;;;;;23.36;54.70;100548.16;5011555;28;20506;-66
2022/08/29 09:44:08;;;;;;;2.88;1.85;;;;;;;23.42;54.03;100545.25;5011698;28;20029;-67
2022/08/29 09:46:33;;;;;;;2.50;1.48;;;;;;;23.45;53.99;100539.28;5011502;28;20037;-67
2022/08/29 09:48:59;;;;;;;3.05;1.73;;;;;;;23.71;54.61;100554.06;5011423;28;20029;-67
2022/08/29 09:51:29;;;;;;;2.70;1.77;;;;;;;23.73;53.84;100556.53;5011371;28;20085;-67
2022/08/29 09:54:12;;;;;;;3.42;2.20;;;;;;;24.13;52.33;100545.34;5011426;28;20402;-67
2022/08/29 09:56:48;;;;;;;3.90;2.08;;;;;;;24.46;51.98;100541.63;5011456;28;20038;-66
2022/08/29 09:59:35;;;;;;;3.33;1.98;;;;;;;24.59;51.21;100540.38;4993484;28;20042;-67
2022/08/29 10:02:27;;;;;;;3.45;1.95;;;;;;;24.75;50.79;100535.88;5011524;28;20068;-67
2022/08/29 10:05:05;;;;;;;2.90;1.95;;;;;;;24.93;49.95;100527.31;4993805;28;20042;-67
2022/08/29 10:07:47;;;;;;;5.13;1.77;;;;;;;25.16;49.50;100529.66;5011499;28;20049;-68
2022/08/29 10:10:17;;;;;;;4.13;1.85;;;;;;;25.58;49.12;100528.81;5011176;28;20459;-66
2022/08/29 10:12:48;;;;;;;3.28;1.88;;;;;;;26.10;47.76;100525.22;5011551;28;20052;-67
2022/08/29 10:15:22;;;;;;;3.90;1.90;;;;;;;26.57;46.97;100520.66;5011201;28;20044;-67
2022/08/29 10:18:19;;;;;;;2.50;1.70;;;;;;;26.86;45.37;100521.72;5011305;28;20030;-67
2022/08/29 10:20:55;;;;;;;3.30;1.75;;;;;;;27.16;44.40;100520.91;5010965;28;20246;-67
2022/08/29 10:23:37;;;;;;;2.78;1.70;;;;;;;27.24;44.88;100517.59;5011563;28;20038;-67
2022/08/29 10:26:25;;;;;;;3.40;2.25;;;;;;;27.00;45.40;100522.84;5011186;28;20527;-68
2022/08/29 10:29:04;;;;;;;4.93;1.67;;;;;;;27.36;44.57;100519.22;5011668;28;20625;-67
2022/08/29 10:31:36;;;;;;;5.07;2.10;;;;;;;27.11;45.09;100517.38;5011282;28;20472;-66
2022/08/29 10:34:46;;;;;;;2.50;1.80;;;;;;;27.96;43.00;100520.09;5011255;28;20041;-67
2022/08/29 10:37:30;;;;;;;5.80;2.03;;;;;;;28.24;43.02;100510.34;4931226;29;20047;-66
2022/08/29 10:40:12;;;;;;;3.55;2.00;;;;;;;28.66;41.56;100518.00;4930925;29;20083;-67
2022/08/29 10:42:41;;;;;;;2.92;1.90;;;;;;;29.03;40.82;100519.34;4990430;28;20144;-66
2022/08/29 10:45:28;;;;;;;2.30;1.73;;;;;;;29.21;40.58;100518.59;5011011;28;20042;-66
2022/08/29 10:48:17;;;;;;;3.05;2.03;;;;;;;29.55;38.42;100504.00;5013286;28;20426;-66
2022/08/29 10:50:57;;;;;;;3.30;2.10;;;;;;;29.83;38.22;100514.03;5014367;28;20126;-66
2022/08/29 10:53:32;;;;;;;2.55;1.60;;;;;;;29.96;37.80;100501.50;5014507;28;20058;-66
2022/08/29 10:56:08;;;;;;;2.47;1.73;;;;;;;29.92;37.03;100506.75;5014450;28;20030;-66
2022/08/29 10:58:53;;;;;;;2.13;1.58;;;;;;;30.11;37.27;100498.56;5014606;28;20041;-67
2022/08/29 11:01:37;;;;;;;4.05;1.63;;;;;;;30.04;37.43;100513.75;5014268;28;20479;-67
2022/08/29 11:04:18;;;;;;;2.97;1.83;;;;;;;30.66;36.55;100501.56;5014281;28;20053;-66
2022/08/29 11:07:03;;;;;;;2.90;1.80;;;;;;;30.62;36.28;100503.25;5014301;28;20372;-67
2022/08/29 11:09:36;;;;;;;2.42;1.60;;;;;;;30.57;36.50;100495.09;5013971;28;20510;-66
2022/08/29 11:12:10;;;;;;;2.70;1.60;;;;;;;30.87;35.44;100491.03;5014093;28;20116;-67
2022/08/29 11:14:45;;;;;;;3.60;2.00;;;;;;;30.95;34.93;100487.56;5014133;28;20033;-67
2022/08/29 11:17:14;;;;;;;2.50;1.77;;;;;;;31.11;35.01;100485.38;5013908;28;20048;-67
2022/08/29 11:20:01;;;;;;;2.90;1.80;;;;;;;31.22;34.94;100480.47;5013646;28;20042;-67
2022/08/29 11:22:39;;;;;;;1.90;1.45;;;;;;;31.31;34.10;100478.69;5013981;28;20038;-66
2022/08/29 11:25:11;;;;;;;3.80;1.90;;;;;;;31.63;34.81;100475.00;5013990;28;20034;-66
2022/08/29 11:27:58;;;;;;;2.58;1.90;;;;;;;31.60;33.91;100467.34;4996388;28;20064;-67
2022/08/29 11:30:35;;;;;;;2.30;1.58;;;;;;;31.65;34.09;100469.16;5013499;28;20060;-66
2022/08/29 11:33:19;;;;;;;3.63;1.92;;;;;;;31.99;32.93;100466.75;5013815;28;20038;-67
2022/08/29 11:36:18;;;;;;;2.65;1.70;;;;;;;31.82;34.19;100463.84;4999968;28;20483;-66
2022/08/29 11:38:52;;;;;;;2.13;1.45;;;;;;;31.70;32.98;100461.63;5001820;28;20402;-67
2022/08/29 11:41:27;;;;;;;3.47;1.88;;;;;;;31.82;33.94;100466.59;5003961;28;20415;-66
2022/08/29 11:44:06;;;;;;;1.65;1.33;;;;;;;31.60;33.41;100454.38;5003530;28;20040;-66
2022/08/29 11:46:40;;;;;;;3.03;1.60;;;;;;;31.30;33.85;100455.03;4984449;28;20058;-66
2022/08/29 11:49:41;;;;;;;1.90;1.42;;;;;;;31.92;33.25;100460.88;5000668;28;20125;-65
2022/08/29 11:52:09;;;;;;;2.22;1.70;;;;;;;31.65;32.75;100455.41;4967324;28;20046;-66
2022/08/29 11:54:35;;;;;;;2.28;1.45;;;;;;;32.12;32.43;100452.13;4984614;28;20034;-66
2022/08/29 11:57:01;;;;;;;1.90;1.50;;;;;;;32.75;32.26;100455.00;5002129;28;20089;-66
2022/08/29 11:59:47;;;;;;;4.83;1.80;;;;;;;33.00;31.09;100437.78;5003943;28;20030;-67
2022/08/29 12:02:32;;;;;;;2.22;1.42;;;;;;;33.07;31.07;100451.13;5002471;28;20046;-66
2022/08/29 12:05:19;;;;;;;2.47;1.73;;;;;;;33.34;30.36;100434.31;4986542;28;20411;-66
2022/08/29 12:07:48;;;;;;;1.88;1.60;;;;;;;33.59;30.85;100443.81;4958781;28;20057;-66
2022/08/29 12:10:23;;;;;;;3.20;2.03;;;;;;;33.37;30.67;100441.13;5003446;28;20110;-65
2022/08/29 12:12:50;;;;;;;2.10;1.58;;;;;;;33.43;30.24;100440.69;5002807;28;20030;-66
2022/08/29 12:15:31;;;;;;;1.90;1.45;;;;;;;33.10;30.30;100439.44;5002524;28;20104;-66
2022/08/29 12:17:59;;;;;;;2.40;1.48;;;;;;;33.92;30.42;100443.41;5002092;28;20048;-66
2022/08/29 12:20:30;;;;;;;2.17;1.50;;;;;;;33.95;29.73;100438.00;5000538;28;20030;-66
2022/08/29 12:23:01;;;;;;;2.13;1.30;;;;;;;33.82;29.10;100438.94;5001490;28;20026;-66
2022/08/29 12:25:26;;;;;;;2.03;1.60;;;;;;;34.52;29.06;100431.47;5003581;28;20356;-66
2022/08/29 12:28:03;;;;;;;2.13;1.60;;;;;;;34.59;28.34;100429.00;5004102;28;20026;-66
2022/08/29 12:30:34;;;;;;;2.67;1.55;;;;;;;34.73;28.00;100424.06;5000379;28;20034;-69
2022/08/29 12:33:12;;;;;;;2.33;1.75;;;;;;;34.16;28.89;100427.09;5000673;28;20032;-66
2022/08/29 12:36:14;;;;;;;2.45;1.52;;;;;;;34.59;28.22;100426.25;4999342;28;20049;-65
2022/08/29 12:38:48;;;;;;;3.00;1.50;;;;;;;34.18;28.55;100413.78;5002684;28;20034;-66
2022/08/29 12:41:47;;;;;;;2.17;1.42;;;;;;;35.11;27.96;100419.72;5004658;28;20030;-65
2022/08/29 12:44:15;;;;;;;2.97;1.73;;;;;;;34.22;28.27;100411.16;5003416;28;20111;-65
2022/08/29 12:46:49;;;;;;;2.40;1.63;;;;;;;34.65;28.27;100410.28;5003406;28;20034;-47
2022/08/29 17:56:56;;;;;;;3.10;2.00;;;;;;;26.03;44.02;100254.47;5109573;27;20117;-54
2022/08/29 17:59:26;;;;;;;3.78;1.88;;;;;;;26.01;44.37;100256.63;5109325;28;20042;-51
2022/08/29 18:01:52;;;;;;;2.67;1.80;;;;;;;25.98;44.24;100254.47;5109601;28;20061;-53
2022/08/29 18:04:17;;;;;;;2.60;1.55;;;;;;;25.91;44.43;100262.13;5109509;28;20119;-49
2022/08/29 18:06:43;;;;;;;2.33;1.77;;;;;;;25.88;45.92;100262.66;5109258;28;20480;-51
2022/08/29 18:09:09;;;;;;;2.30;1.80;;;;;;;25.82;45.86;100261.03;5090640;28;20032;-49
2022/08/29 18:11:40;;;;;;;2.55;1.50;;;;;;;25.80;45.99;100265.94;5107975;28;20036;-48
2022/08/29 18:14:07;;;;;;;2.50;1.83;;;;;;;25.72;46.52;100267.28;5109352;28;20036;-55
2022/08/29 18:16:33;;;;;;;3.50;2.22;;;;;;;25.67;46.47;100270.81;5108998;28;20092;-52
2022/08/29 18:18:59;;;;;;;2.95;2.00;;;;;;;25.59;46.33;100268.63;5109043;28;20032;-50
2022/08/29 18:21:24;;;;;;;2.92;2.35;;;;;;;25.47;46.38;100270.81;5107596;28;20070;-54
2022/08/29 18:23:50;;;;;;;3.70;1.90;;;;;;;25.44;45.71;100274.09;5109276;28;20192;-47
2022/08/29 18:26:16;;;;;;;3.83;2.25;;;;;;;25.41;47.14;100269.16;5107887;28;20048;-48
2022/08/29 18:28:41;;;;;;;2.63;2.00;;;;;;;25.33;48.70;100275.16;5108893;28;20070;-48
2022/08/29 18:31:08;;;;;;;3.28;1.90;;;;;;;25.31;48.44;100278.16;5108786;28;20031;-48
2022/08/29 18:33:34;;;;;;;3.55;2.03;;;;;;;25.29;48.83;100276.78;5108967;28;20040;-50
2022/08/29 18:36:00;;;;;;;2.38;1.75;;;;;;;25.25;47.91;100275.69;5108759;28;20429;-65
2022/08/29 18:38:26;;;;;;;2.92;1.83;;;;;;;25.25;49.05;100281.97;5108644;28;20031;-63
2022/08/29 18:40:51;;;;;;;1.85;1.65;;;;;;;25.23;49.20;100281.38;5108493;28;20047;-65
2022/08/29 18:43:17;;;;;;;3.05;1.73;;;;;;;25.12;51.00;100283.28;5107518;28;20036;-66
2022/08/29 18:45:45;;;;;;;2.03;1.83;;;;;;;25.08;50.70;100290.34;5108650;28;20032;-66
2022/08/29 18:48:10;;;;;;;2.78;2.00;;;;;;;24.91;52.27;100292.47;5108586;28;20038;-64
2022/08/29 18:50:36;;;;;;;2.85;2.13;;;;;;;24.82;52.52;100289.41;5106794;28;20441;-66
2022/08/29 18:53:13;;;;;;;2.88;2.17;;;;;;;24.64;56.37;100293.41;5108378;28;20042;-71
2022/08/29 18:55:41;;;;;;;3.78;2.20;;;;;;;24.56;53.49;100304.81;5108476;28;20512;-70
2022/08/29 18:58:07;;;;;;;3.10;2.25;;;;;;;24.44;56.68;100311.53;5108218;28;20039;-70
2022/08/29 19:00:33;;;;;;;3.55;2.10;;;;;;;24.21;60.08;100308.13;5108118;28;20046;-71
2022/08/29 19:02:59;;;;;;;2.17;1.98;;;;;;;24.16;59.56;100308.06;5108379;28;20059;-70
2022/08/29 19:05:27;;;;;;;2.97;2.10;;;;;;;24.06;59.41;100306.13;5107401;28;20447;-71
2022/08/29 19:07:53;;;;;;;;;;;;;;;23.95;60.58;100311.72;5086279;28;20489;-71
2022/08/29 19:10:19;;;;;;;3.20;2.20;;;;;;;23.86;61.24;100311.38;5083611;28;19912;-71
2022/08/29 19:12:45;;;;;;;3.57;2.70;;;;;;;23.65;63.52;100306.84;5083623;28;20044;-71
2022/08/29 19:15:12;;;;;;;2.55;1.77;;;;;;;23.55;64.18;100312.97;5083419;28;20298;-71
2022/08/29 19:17:37;;;;;;;3.33;2.13;;;;;;;23.48;61.63;100315.91;5084032;28;20032;-71
2022/08/29 19:22:52;;;;;;;3.88;1.83;;;;;;;23.40;64.68;100316.34;5083521;28;20094;-71
2022/08/29 19:25:18;;;;;;;2.90;2.13;;;;;;;23.25;66.48;100316.19;5083453;28;20423;-71
2022/08/29 19:27:43;;;;;;;2.28;1.80;;;;;;;23.15;67.81;100316.09;5084579;28;20038;-71
2022/08/29 19:30:11;;;;;;;2.75;1.92;;;;;;;22.91;67.49;100321.78;5081416;28;20032;-71
2022/08/29 19:32:36;;;;;;;;;;;;;;;22.90;64.80;100325.56;5083875;28;20024;-71
2022/08/29 19:35:02;;;;;;;2.47;1.95;;;;;;;22.85;65.24;100321.94;5084421;28;19931;-71
2022/08/29 19:37:27;;;;;;;2.60;2.00;;;;;;;22.77;63.16;100316.97;5082420;28;20029;-71
2022/08/29 19:39:53;;;;;;;2.58;2.17;;;;;;;22.73;62.25;100324.78;5065779;28;20043;-71
2022/08/29 19:42:18;;;;;;;3.40;1.88;;;;;;;22.78;59.65;100321.31;5083784;28;20037;-71
2022/08/29 19:44:44;;;;;;;3.70;2.10;;;;;;;22.84;55.48;100326.56;5082183;28;20036;-72
2022/08/29 19:47:09;;;;;;;2.20;1.63;;;;;;;22.85;53.80;100330.91;5084029;28;20042;-76
2022/08/29 19:49:35;;;;;;;3.50;2.47;;;;;;;22.86;55.43;100331.72;5082893;28;20043;-75
2022/08/29 19:52:00;;;;;;;3.17;2.35;;;;;;;22.84;61.43;100334.69;5082454;28;20086;-74
2022/08/29 19:54:26;;;;;;;1.80;1.40;;;;;;;22.91;58.39;100343.50;5082536;28;20544;-73
2022/08/29 19:56:52;;;;;;;2.65;1.92;;;;;;;22.68;57.19;100343.69;5081196;28;20037;-74
2022/08/29 19:59:17;;;;;;;2.38;1.65;;;;;;;22.65;55.64;100345.03;5082394;28;20103;-73
2022/08/29 20:01:43;;;;;;;2.22;1.75;;;;;;;22.63;54.98;100347.19;5082705;28;20086;-73
2022/08/29 20:04:09;;;;;;;2.72;1.73;;;;;;;22.60;52.99;100350.38;5082145;28;20095;-72
2022/08/29 20:06:35;;;;;;;2.80;1.58;;;;;;;22.61;51.93;100346.59;5082895;28;20027;-73
2022/08/29 20:09:01;;;;;;;2.28;1.42;;;;;;;22.64;52.26;100356.16;5083518;28;20090;-73
2022/08/29 20:11:28;;;;;;;2.78;1.80;;;;;;;22.65;51.78;100355.06;5082031;28;20071;-73
2022/08/29 20:13:57;;;;;;;2.92;1.92;;;;;;;22.65;51.58;100355.88;5083287;28;20480;-73
2022/08/29 20:16:28;;;;;;;2.33;1.73;;;;;;;22.63;51.91;100354.50;5093131;28;20040;-73
2022/08/29 20:18:53;;;;;;;2.90;1.90;;;;;;;22.61;52.15;100364.78;5091952;28;20040;-73
2022/08/29 20:21:20;;;;;;;2.80;1.90;;;;;;;22.57;51.97;100360.94;5093021;28;20034;-73
2022/08/29 20:23:47;;;;;;;2.40;1.90;;;;;;;22.60;52.53;100363.13;5091963;28;20465;-72
2022/08/29 20:26:13;;;;;;;2.58;1.77;;;;;;;22.56;53.56;100367.41;5093039;28;20110;-72
2022/08/29 20:28:40;;;;;;;2.65;1.65;;;;;;;22.58;55.23;100368.00;5092813;28;20068;-72
2022/08/29 20:31:06;;;;;;;2.65;1.88;;;;;;;22.48;55.15;100369.47;5092634;28;20043;-72
2022/08/29 20:33:32;;;;;;;2.85;1.88;;;;;;;22.42;55.04;100378.59;5091695;28;20040;-72
2022/08/29 20:38:42;;;;;;;2.88;2.00;;;;;;;22.30;56.19;100379.75;5092774;28;20035;-72
2022/08/29 20:41:07;;;;;;;3.22;2.00;;;;;;;22.30;56.26;100368.91;5092479;28;20048;-72
2022/08/29 20:43:34;;;;;;;2.13;1.65;;;;;;;22.29;56.47;100375.41;5092698;28;20210;-73
2022/08/29 20:46:06;;;;;;;2.80;1.90;;;;;;;22.27;56.95;100380.28;5091392;28;20034;-72
2022/08/29 20:48:31;;;;;;;2.80;1.60;;;;;;;22.27;57.74;100381.09;5092588;28;20326;-72
2022/08/29 20:51:03;;;;;;;2.28;1.65;;;;;;;22.17;58.05;100384.47;5092423;28;20063;-73
2022/08/29 20:53:29;;;;;;;4.47;2.17;;;;;;;22.13;57.90;100385.22;5092550;28;20039;-72
2022/08/29 20:55:55;;;;;;;1.98;1.70;;;;;;;22.03;57.73;100385.00;5092241;28;20044;-73
2022/08/29 20:58:21;;;;;;;2.58;1.80;;;;;;;22.05;58.09;100385.59;5092522;28;20036;-72
2022/08/29 21:00:47;;;;;;;2.30;1.67;;;;;;;21.97;57.80;100386.78;5092127;28;20051;-72
2022/08/29 21:05:56;;;;;;;2.25;1.83;;;;;;;21.93;59.05;100386.47;5092158;28;20032;-72
2022/08/29 21:08:22;;;;;;;2.83;2.05;;;;;;;21.87;59.19;100383.91;5092218;28;20424;-73
2022/08/29 21:10:53;;;;;;;2.25;1.60;;;;;;;21.88;58.58;100388.28;5092041;28;20036;-73
2022/08/29 21:13:19;;;;;;;2.42;1.75;;;;;;;21.77;59.44;100386.44;5092321;28;20047;-73